createdAt,value
2022-11-03T00:01:48.731Z,11.70
2022-11-03T00:04:18.042Z,14.40
2022-11-03T00:06:46.756Z,12.88
2022-11-03T00:09:15.059Z,14.77
2022-11-03T00:11:43.451Z,12.73
2022-11-03T00:14:11.218Z,11.27
2022-11-03T00:16:39.159Z,11.95
2022-11-03T00:19:06.362Z,10.27
2022-11-03T00:21:33.318Z,10.77
2022-11-03T00:24:01.334Z,10.68
2022-11-03T00:26:29.529Z,11.15
2022-11-03T00:29:01.498Z,14.88
2022-11-03T00:31:33.572Z,9.48
2022-11-03T00:34:01.773Z,11.15
2022-11-03T00:36:33.909Z,13.07
2022-11-03T00:39:00.518Z,9.38
2022-11-03T00:41:27.915Z,10.27
2022-11-03T00:43:54.952Z,12.57
2022-11-03T00:46:23.054Z,12.70
2022-11-03T00:48:49.916Z,11.60
2022-11-03T00:51:24.789Z,11.38
2022-11-03T00:53:53.731Z,9.68
2022-11-03T00:56:22.442Z,12.40
2022-11-03T00:58:50.104Z,12.25
2022-11-03T01:01:22.590Z,10.35
2022-11-03T01:04:10.329Z,12.77
2022-11-03T01:06:51.185Z,11.38
2022-11-03T01:09:44.964Z,11.55
2022-11-03T01:12:14.299Z,9.55
2022-11-03T01:14:49.066Z,12.18
2022-11-03T01:17:24.196Z,8.55
2022-11-03T01:19:51.412Z,10.52
2022-11-03T01:22:19.049Z,10.27
2022-11-03T01:24:46.106Z,10.63
2022-11-03T01:27:17.934Z,10.68
2022-11-03T01:29:44.464Z,13.07
2022-11-03T01:32:11.714Z,12.52
2022-11-03T01:34:38.655Z,13.10
2022-11-03T01:37:05.271Z,9.48
2022-11-03T01:39:31.841Z,10.60
2022-11-03T01:41:58.631Z,9.63
2022-11-03T01:44:42.055Z,11.50
2022-11-03T01:47:29.513Z,13.52
2022-11-03T01:50:03.413Z,8.82
2022-11-03T01:52:58.375Z,10.50
2022-11-03T01:55:32.394Z,11.00
2022-11-03T01:58:17.145Z,9.45
2022-11-03T02:00:47.217Z,9.60
2022-11-03T02:03:15.453Z,10.25
2022-11-03T02:05:45.783Z,9.48
2022-11-03T02:08:18.271Z,11.63
2022-11-03T02:10:47.980Z,8.25
2022-11-03T02:13:26.360Z,8.52
2022-11-03T02:15:57.355Z,8.40
2022-11-03T02:21:18.390Z,10.43
2022-11-03T02:24:13.321Z,8.48
2022-11-03T02:26:42.221Z,8.55
2022-11-03T02:29:08.736Z,10.57
2022-11-03T02:31:41.494Z,8.45
2022-11-03T02:34:23.020Z,8.75
2022-11-03T02:37:10.312Z,6.93
2022-11-03T02:39:41.570Z,8.80
2022-11-03T02:42:09.786Z,9.60
2022-11-03T02:44:37.213Z,9.40
2022-11-03T02:47:08.160Z,7.47
2022-11-03T02:52:35.696Z,8.40
2022-11-03T02:55:12.487Z,9.65
2022-11-03T02:57:45.121Z,9.15
2022-11-03T03:00:12.818Z,8.55
2022-11-03T03:02:49.439Z,7.72
2022-11-03T03:05:18.036Z,10.23
2022-11-03T03:07:49.421Z,7.72
2022-11-03T03:10:23.992Z,8.45
2022-11-03T03:12:56.959Z,9.70
2022-11-03T03:15:33.140Z,9.50
2022-11-03T03:18:26.411Z,7.70
2022-11-03T03:21:01.895Z,11.90
2022-11-03T03:23:34.228Z,10.43
2022-11-03T03:26:07.796Z,8.48
2022-11-03T03:28:43.328Z,9.82
2022-11-03T03:31:13.510Z,11.13
2022-11-03T03:33:43.536Z,8.98
2022-11-03T03:36:19.690Z,11.80
2022-11-03T03:38:54.563Z,8.23
2022-11-03T03:41:24.147Z,8.30
2022-11-03T03:43:55.296Z,8.90
2022-11-03T03:46:23.795Z,6.07
2022-11-03T03:48:50.434Z,8.82
2022-11-03T03:51:22.378Z,6.45
2022-11-03T03:53:53.394Z,8.73
2022-11-03T03:59:13.065Z,8.65
2022-11-03T04:01:39.788Z,8.65
2022-11-03T04:04:06.387Z,11.57
2022-11-03T04:06:32.898Z,8.73
2022-11-03T04:08:59.517Z,10.02
2022-11-03T04:11:44.708Z,8.63
2022-11-03T04:14:30.032Z,8.20
2022-11-03T04:17:15.111Z,7.15
2022-11-03T04:20:00.170Z,7.65
2022-11-03T04:22:31.496Z,8.32
2022-11-03T04:24:59.120Z,7.85
2022-11-03T04:27:30.294Z,8.45
2022-11-03T04:30:19.211Z,8.57
2022-11-03T04:32:48.177Z,8.55
2022-11-03T04:35:20.202Z,9.75
2022-11-03T04:37:55.192Z,8.60
2022-11-03T04:40:21.919Z,8.65
2022-11-03T04:42:48.652Z,9.60
2022-11-03T04:45:35.734Z,9.98
2022-11-03T04:48:10.795Z,10.70
2022-11-03T04:50:37.368Z,7.55
2022-11-03T04:53:11.384Z,10.48
2022-11-03T04:55:40.923Z,11.18
2022-11-03T04:58:20.999Z,8.10
2022-11-03T05:00:52.758Z,8.98
2022-11-03T05:03:25.316Z,8.88
2022-11-03T05:05:52.158Z,9.90
2022-11-03T05:08:19.879Z,9.68
2022-11-03T05:10:47.365Z,9.02
2022-11-03T05:13:25.082Z,8.13
2022-11-03T05:15:54.519Z,8.90
2022-11-03T05:18:28.942Z,8.23
2022-11-03T05:21:00.948Z,9.32
2022-11-03T05:23:30.963Z,7.63
2022-11-03T05:25:58.960Z,6.88
2022-11-03T05:28:28.844Z,6.05
2022-11-03T05:30:55.847Z,6.72
2022-11-03T05:33:35.571Z,7.18
2022-11-03T05:36:06.133Z,10.52
2022-11-03T05:38:33.547Z,10.68
2022-11-03T05:41:00.491Z,10.20
2022-11-03T05:43:28.552Z,10.15
2022-11-03T05:45:59.047Z,6.15
2022-11-03T05:48:37.348Z,11.50
2022-11-03T05:51:24.671Z,7.70
2022-11-03T05:53:54.220Z,10.10
2022-11-03T05:56:23.843Z,7.40
2022-11-03T05:58:52.988Z,8.00
2022-11-03T06:01:31.110Z,11.55
2022-11-03T06:04:00.719Z,7.55
2022-11-03T06:06:35.239Z,12.43
2022-11-03T06:09:23.619Z,9.50
2022-11-03T06:11:52.979Z,7.78
2022-11-03T06:14:27.158Z,10.20
2022-11-03T06:17:06.097Z,10.02
2022-11-03T06:19:37.464Z,8.80
2022-11-03T06:22:20.777Z,6.50
2022-11-03T06:24:47.585Z,11.40
2022-11-03T06:27:21.553Z,6.50
2022-11-03T06:29:53.447Z,9.98
2022-11-03T06:32:20.079Z,7.43
2022-11-03T06:34:52.735Z,9.32
2022-11-03T06:37:31.038Z,8.70
2022-11-03T06:40:11.277Z,9.82
2022-11-03T06:42:41.095Z,8.07
2022-11-03T06:45:25.325Z,9.13
2022-11-03T06:47:54.051Z,9.63
2022-11-03T06:50:31.233Z,11.85
2022-11-03T06:55:27.255Z,9.32
2022-11-03T06:57:59.038Z,8.50
2022-11-03T07:00:34.043Z,11.88
2022-11-03T07:03:27.358Z,10.30
2022-11-03T07:06:01.451Z,11.68
2022-11-03T07:08:44.491Z,7.18
2022-11-03T07:11:14.492Z,10.68
2022-11-03T07:13:41.443Z,9.45
2022-11-03T07:16:17.733Z,8.65
2022-11-03T07:18:47.687Z,11.48
2022-11-03T07:21:40.281Z,11.27
2022-11-03T07:24:36.201Z,13.70
2022-11-03T07:29:34.739Z,12.07
2022-11-03T07:32:01.281Z,10.68
2022-11-03T07:34:32.844Z,11.98
2022-11-03T07:37:00.439Z,13.23
2022-11-03T07:39:34.727Z,13.35
2022-11-03T07:42:12.331Z,11.60
2022-11-03T07:44:39.972Z,11.85
2022-11-03T07:47:15.938Z,10.70
2022-11-03T07:49:42.992Z,10.07
2022-11-03T07:52:15.753Z,11.63
2022-11-03T07:54:42.945Z,10.85
2022-11-03T07:57:32.532Z,11.15
2022-11-03T08:02:59.396Z,12.35
2022-11-03T08:05:25.918Z,14.18
2022-11-03T08:07:52.455Z,12.80
2022-11-03T08:10:21.423Z,9.90
2022-11-03T08:12:47.916Z,14.10
2022-11-03T08:15:15.932Z,9.00
2022-11-03T08:17:42.739Z,8.25
2022-11-03T08:20:09.803Z,11.40
2022-11-03T08:22:36.305Z,8.85
2022-11-03T08:44:22.397Z,6.68
2022-11-03T08:46:48.968Z,7.72
2022-11-03T08:49:15.512Z,4.93
2022-11-03T08:51:44.645Z,6.22
2022-11-03T08:54:11.622Z,7.28
2022-11-03T08:56:38.168Z,6.38
2022-11-03T08:59:04.826Z,7.75
2022-11-03T09:01:31.393Z,6.35
2022-11-03T09:03:58.037Z,6.50
2022-11-03T09:06:25.004Z,6.18
2022-11-03T09:11:38.224Z,4.18
2022-11-03T09:14:04.798Z,6.78
2022-11-03T09:16:31.358Z,3.92
2022-11-03T09:18:58.045Z,3.67
2022-11-03T09:21:24.617Z,5.10
2022-11-03T09:23:51.166Z,4.50
2022-11-03T09:26:17.986Z,5.43
2022-11-03T09:28:44.496Z,4.78
2022-11-03T09:31:11.246Z,5.75
2022-11-03T09:33:38.096Z,4.13
2022-11-03T09:36:04.770Z,4.53
2022-11-03T09:38:31.263Z,5.30
2022-11-03T09:40:58.176Z,5.72
2022-11-03T09:43:24.775Z,6.10
2022-11-03T09:45:51.393Z,7.93
2022-11-03T09:48:18.272Z,6.80
2022-11-03T09:50:53.635Z,7.18
2022-11-03T09:53:21.529Z,6.43
2022-11-03T09:55:48.031Z,8.57
2022-11-03T09:58:16.787Z,5.97
2022-11-03T10:00:45.036Z,7.72
2022-11-03T10:03:13.409Z,5.50
2022-11-03T10:05:41.736Z,5.65
2022-11-03T10:08:22.782Z,8.65
2022-11-03T10:10:53.178Z,3.78
2022-11-03T10:13:36.224Z,3.58
2022-11-03T10:16:06.321Z,4.22
2022-11-03T10:18:34.645Z,4.32
2022-11-03T10:21:06.947Z,5.55
2022-11-03T10:23:33.822Z,6.78
2022-11-03T10:26:11.848Z,8.00
2022-11-03T10:28:38.864Z,5.30
2022-11-03T10:31:11.759Z,5.43
2022-11-03T10:33:40.798Z,4.90
2022-11-03T10:36:16.443Z,3.83
2022-11-03T10:38:43.814Z,5.20
2022-11-03T10:41:23.739Z,6.07
2022-11-03T10:44:18.623Z,3.72
2022-11-03T10:46:59.517Z,5.85
2022-11-03T10:49:28.654Z,5.20
2022-11-03T10:52:06.750Z,4.53
2022-11-03T10:54:35.947Z,4.18
2022-11-03T10:57:02.501Z,2.22
2022-11-03T10:59:33.118Z,3.90
2022-11-03T11:02:01.228Z,5.18
2022-11-03T11:04:28.136Z,4.47
2022-11-03T11:06:54.988Z,6.00
2022-11-03T11:09:26.629Z,5.53
2022-11-03T11:12:01.455Z,3.35
2022-11-03T11:14:28.316Z,5.50
2022-11-03T11:16:57.023Z,6.88
2022-11-03T11:19:25.548Z,7.55
2022-11-03T11:21:55.099Z,6.05
2022-11-03T11:24:43.097Z,3.88
2022-11-03T11:27:34.380Z,4.70
2022-11-03T11:30:21.123Z,9.38
2022-11-03T11:32:49.680Z,8.48
2022-11-03T11:35:16.179Z,5.32
2022-11-03T11:37:43.358Z,3.50
2022-11-03T11:40:34.190Z,3.08
2022-11-03T11:43:04.463Z,3.97
2022-11-03T11:46:08.452Z,5.85
2022-11-03T11:48:35.192Z,6.60
2022-11-03T11:51:03.880Z,7.70
2022-11-03T11:53:39.011Z,8.68
2022-11-03T11:56:09.384Z,8.15
2022-11-03T11:58:43.286Z,2.95
2022-11-03T12:01:21.967Z,2.92
2022-11-03T12:03:49.752Z,3.75
2022-11-03T12:06:16.585Z,5.32
2022-11-03T12:08:44.047Z,5.55
2022-11-03T12:11:12.495Z,5.75
2022-11-03T12:13:48.571Z,7.38
2022-11-03T12:16:28.593Z,6.25
2022-11-03T12:18:55.428Z,6.63
2022-11-03T12:21:50.175Z,6.25
2022-11-03T12:24:32.271Z,6.45
2022-11-03T12:27:03.699Z,7.53
2022-11-03T12:29:30.222Z,5.28
2022-11-03T12:31:56.732Z,7.53
2022-11-03T12:34:23.601Z,4.95
2022-11-03T12:36:54.898Z,6.10
2022-11-03T12:39:22.877Z,4.57
2022-11-03T12:41:49.824Z,4.03
2022-11-03T12:44:16.443Z,4.32
2022-11-03T12:46:43.013Z,3.75
2022-11-03T12:49:10.292Z,3.75
2022-11-03T12:51:36.925Z,3.20
2022-11-03T12:54:03.663Z,7.00
2022-11-03T12:56:30.497Z,2.63
2022-11-03T12:58:57.110Z,4.10
2022-11-03T13:01:23.843Z,6.32
2022-11-03T13:03:50.984Z,3.65
2022-11-03T13:06:17.778Z,3.03
2022-11-03T13:08:46.602Z,3.38
2022-11-03T13:11:34.316Z,3.55
2022-11-03T13:14:00.935Z,3.72
2022-11-03T13:16:28.127Z,4.68
2022-11-03T13:18:54.656Z,3.75
2022-11-03T13:21:21.229Z,6.85
2022-11-03T13:23:48.112Z,3.47
2022-11-03T13:26:14.701Z,4.68
2022-11-03T13:28:41.281Z,3.83
2022-11-03T13:31:08.036Z,5.82
2022-11-03T13:33:34.538Z,7.97
2022-11-03T13:36:01.215Z,4.68
2022-11-03T13:38:28.075Z,4.30
2022-11-03T13:40:56.885Z,5.50
2022-11-03T13:43:25.089Z,5.00
2022-11-03T13:45:53.062Z,4.68
2022-11-03T13:51:10.609Z,3.80
2022-11-03T13:56:24.691Z,2.78
2022-11-03T14:01:39.220Z,3.53
2022-11-03T14:06:54.064Z,3.25
2022-11-03T14:09:20.786Z,4.63
2022-11-03T14:12:06.201Z,4.68
2022-11-03T14:14:32.930Z,3.22
2022-11-03T14:16:59.508Z,3.13
2022-11-03T14:19:35.313Z,4.07
2022-11-03T14:22:05.256Z,2.67
2022-11-03T14:24:31.963Z,2.85
2022-11-03T14:26:58.725Z,2.95
2022-11-03T14:29:25.543Z,3.95
2022-11-03T14:31:52.104Z,3.63
2022-11-03T14:34:18.762Z,3.15
2022-11-03T14:36:45.748Z,3.58
2022-11-03T14:39:12.390Z,3.85
2022-11-03T14:42:01.872Z,2.92
2022-11-03T14:44:28.921Z,3.17
2022-11-03T14:46:55.561Z,3.88
2022-11-03T14:49:22.743Z,2.47
2022-11-03T14:51:51.219Z,3.33
2022-11-03T14:54:17.836Z,3.33
2022-11-03T14:56:44.432Z,3.85
2022-11-03T14:59:11.531Z,3.38
2022-11-03T15:01:38.920Z,2.35
2022-11-03T15:04:06.714Z,4.40
2022-11-03T15:06:33.976Z,2.53
2022-11-03T15:09:00.802Z,3.78
2022-11-03T15:11:28.921Z,3.13
2022-11-03T15:13:55.798Z,3.50
2022-11-03T15:16:23.257Z,5.32
2022-11-03T15:18:50.475Z,3.47
2022-11-03T15:21:17.459Z,3.40
2022-11-03T15:26:31.009Z,2.50
2022-11-03T15:28:57.549Z,2.75
2022-11-03T15:31:24.357Z,3.22
2022-11-03T15:33:51.239Z,6.38
2022-11-03T15:36:18.086Z,4.75
2022-11-03T15:38:44.713Z,4.55
2022-11-03T15:41:17.666Z,3.75
2022-11-03T15:43:49.138Z,3.05
2022-11-03T15:46:17.061Z,3.92
2022-11-03T15:48:44.923Z,4.25
2022-11-03T15:51:12.230Z,4.80
2022-11-03T15:53:39.635Z,4.45
2022-11-03T15:56:07.061Z,5.65
2022-11-03T15:58:34.619Z,4.35
2022-11-03T16:01:03.057Z,4.88
2022-11-03T16:03:31.912Z,5.35
2022-11-03T16:05:59.209Z,5.60
2022-11-03T16:08:26.227Z,3.80
2022-11-03T16:10:57.532Z,3.53
2022-11-03T16:13:25.474Z,3.75
2022-11-03T16:15:54.582Z,4.75
2022-11-03T16:18:21.631Z,5.70
2022-11-03T16:20:48.248Z,3.40
2022-11-03T16:23:15.309Z,3.70
2022-11-03T16:25:41.824Z,3.33
2022-11-03T16:28:08.714Z,5.15
2022-11-03T16:30:38.441Z,5.00
2022-11-03T16:33:05.225Z,2.70
2022-11-03T16:35:31.722Z,4.75
2022-11-03T16:37:58.439Z,5.25
2022-11-03T16:40:24.976Z,7.38
2022-11-03T16:42:51.511Z,3.85
2022-11-03T16:45:20.691Z,4.97
2022-11-03T16:47:47.992Z,5.72
2022-11-03T16:50:16.319Z,7.25
2022-11-03T16:52:43.785Z,5.03
2022-11-03T16:55:11.954Z,6.00
2022-11-03T16:57:39.547Z,8.45
2022-11-03T17:00:08.787Z,3.75
2022-11-03T17:02:35.800Z,4.55
2022-11-03T17:05:03.490Z,4.88
2022-11-03T17:07:30.399Z,4.47
2022-11-03T17:09:57.144Z,5.20
2022-11-03T17:12:23.810Z,5.53
2022-11-03T17:14:53.993Z,7.95
2022-11-03T17:17:23.214Z,4.80
2022-11-03T17:19:49.834Z,7.28
2022-11-03T17:22:16.886Z,6.05
2022-11-03T17:24:43.491Z,6.40
2022-11-03T17:27:45.112Z,7.85
2022-11-03T17:30:17.632Z,5.90
2022-11-03T17:32:44.343Z,6.90
2022-11-03T17:35:18.410Z,6.55
2022-11-03T17:37:45.124Z,4.38
2022-11-03T17:40:29.324Z,4.60
2022-11-03T17:42:56.128Z,4.45
2022-11-03T17:45:25.035Z,6.28
2022-11-03T17:47:52.271Z,4.28
2022-11-03T17:50:21.063Z,6.32
2022-11-03T17:52:49.664Z,5.43
2022-11-03T17:55:22.344Z,6.57
2022-11-03T17:57:49.139Z,5.50
2022-11-03T18:00:18.186Z,5.93
2022-11-03T18:02:45.929Z,5.18
2022-11-03T18:05:20.259Z,8.10
2022-11-03T18:07:48.925Z,9.02
2022-11-03T18:10:15.637Z,5.32
2022-11-03T18:13:05.603Z,4.65
2022-11-03T18:15:34.034Z,4.88
2022-11-03T18:18:02.065Z,6.35
2022-11-03T18:20:30.100Z,7.75
2022-11-03T18:23:18.144Z,6.13
2022-11-03T18:25:44.884Z,5.85
2022-11-03T18:28:12.327Z,6.53
2022-11-03T18:30:40.376Z,7.75
2022-11-03T18:33:14.512Z,5.45
2022-11-03T18:35:41.159Z,6.13
2022-11-03T18:38:12.306Z,5.28
2022-11-03T18:40:39.462Z,3.45
2022-11-03T18:43:20.536Z,4.68
2022-11-03T18:45:47.826Z,1.50
2022-11-03T18:48:19.524Z,1.85
2022-11-03T18:50:48.408Z,2.38
2022-11-03T18:53:16.589Z,1.85
2022-11-03T18:55:43.357Z,1.50
2022-11-03T18:58:32.001Z,2.22
2022-11-03T19:00:59.199Z,2.08
2022-11-03T19:03:25.908Z,2.13
2022-11-03T19:05:53.004Z,1.80
2022-11-03T19:08:28.330Z,6.28
2022-11-03T19:10:56.485Z,2.63
2022-11-03T19:13:28.790Z,2.17
2022-11-03T19:16:00.138Z,1.90
2022-11-03T19:18:28.555Z,2.53
2022-11-03T19:20:55.052Z,4.82
2022-11-03T19:23:21.683Z,3.00
2022-11-03T19:25:49.950Z,2.38
2022-11-03T19:28:21.089Z,3.25
2022-11-03T19:30:48.251Z,2.42
2022-11-03T19:33:21.131Z,2.25
2022-11-03T19:35:49.216Z,3.97
2022-11-03T19:38:17.984Z,3.13
2022-11-03T19:41:04.162Z,2.92
2022-11-03T19:43:34.546Z,1.77
2022-11-03T19:46:01.939Z,1.48
2022-11-03T19:48:32.149Z,1.40
2022-11-03T19:50:58.894Z,2.00
2022-11-03T19:53:28.930Z,2.08
2022-11-03T19:55:56.248Z,1.20
2022-11-03T19:58:25.576Z,2.85
2022-11-03T20:00:53.268Z,1.73
2022-11-03T20:03:20.242Z,1.50
2022-11-03T20:05:49.685Z,2.80
2022-11-03T20:08:19.794Z,2.55
2022-11-03T20:10:48.020Z,1.48
2022-11-03T20:13:26.274Z,1.90
2022-11-03T20:15:59.129Z,1.52
2022-11-03T20:18:27.592Z,2.30
2022-11-03T20:20:54.298Z,1.98
2022-11-03T20:23:28.673Z,1.73
2022-11-03T20:25:55.576Z,3.00
2022-11-03T20:28:25.335Z,3.35
2022-11-03T20:30:52.711Z,1.48
2022-11-03T20:33:21.971Z,1.92
2022-11-03T20:35:49.130Z,1.95
2022-11-03T20:38:19.244Z,1.30
2022-11-03T20:40:47.055Z,1.00
2022-11-03T20:43:34.694Z,1.40
2022-11-03T20:46:01.574Z,2.90
2022-11-03T20:48:28.207Z,1.92
2022-11-03T20:50:55.256Z,2.60
2022-11-03T20:53:24.326Z,1.40
2022-11-03T20:55:52.140Z,1.67
2022-11-03T20:58:19.044Z,1.35
2022-11-03T21:00:47.311Z,1.23
2022-11-03T21:06:16.740Z,3.25
2022-11-03T21:08:44.518Z,2.05
2022-11-03T21:11:23.628Z,1.60
2022-11-03T21:14:23.889Z,1.23
2022-11-03T21:17:09.214Z,1.55
2022-11-03T21:19:41.807Z,1.85
2022-11-03T21:22:45.814Z,1.67
2022-11-03T21:25:13.120Z,2.22
2022-11-03T21:27:42.221Z,2.88
2022-11-03T21:30:11.761Z,2.38
2022-11-03T21:32:38.271Z,1.98
2022-11-03T21:35:05.801Z,3.92
2022-11-03T21:37:32.338Z,2.72
2022-11-03T21:39:58.954Z,1.70
2022-11-03T21:42:44.150Z,2.83
2022-11-03T21:45:10.744Z,3.65
2022-11-03T21:47:37.231Z,5.82
2022-11-03T21:50:04.045Z,2.85
2022-11-03T21:52:33.261Z,3.45
2022-11-03T21:55:01.448Z,3.63
2022-11-03T21:57:28.726Z,2.17
2022-11-03T21:59:58.987Z,6.57
2022-11-03T22:02:26.916Z,3.80
2022-11-03T22:04:57.007Z,2.45
2022-11-03T22:07:24.178Z,2.10
2022-11-03T22:09:50.798Z,2.35
2022-11-03T22:12:17.332Z,4.28
2022-11-03T22:15:02.588Z,4.35
2022-11-03T22:17:29.149Z,3.25
2022-11-03T22:20:14.039Z,3.83
2022-11-03T22:22:59.159Z,3.47
2022-11-03T22:25:44.288Z,2.72
2022-11-03T22:28:14.636Z,2.00
2022-11-03T22:33:27.108Z,4.70
2022-11-03T22:36:20.446Z,3.42
2022-11-03T22:39:06.964Z,2.75
2022-11-03T22:41:52.424Z,2.30
2022-11-03T22:44:37.994Z,4.18
2022-11-03T22:47:08.111Z,2.90
2022-11-03T22:49:35.301Z,4.80
2022-11-03T22:52:01.950Z,3.45
2022-11-03T22:54:28.489Z,2.30
2022-11-03T22:56:55.080Z,4.50
2022-11-03T22:59:21.706Z,3.97
2022-11-03T23:01:48.375Z,3.75
2022-11-03T23:04:14.993Z,4.22
2022-11-03T23:06:41.557Z,2.63
2022-11-03T23:09:08.766Z,4.32
2022-11-03T23:11:35.328Z,3.53
2022-11-03T23:14:10.133Z,3.03
2022-11-03T23:16:45.743Z,4.43
2022-11-03T23:19:33.052Z,3.17
2022-11-03T23:22:00.112Z,7.88
2022-11-03T23:24:45.625Z,4.32
2022-11-03T23:27:13.069Z,4.22
2022-11-03T23:29:39.774Z,3.92
2022-11-03T23:32:06.422Z,3.88
2022-11-03T23:34:35.165Z,6.78
2022-11-03T23:37:02.530Z,5.15
2022-11-03T23:39:29.298Z,4.22
2022-11-03T23:41:55.866Z,3.28
2022-11-03T23:44:22.402Z,5.03
2022-11-03T23:47:07.188Z,4.47
2022-11-03T23:49:33.808Z,6.70
2022-11-03T23:52:00.325Z,6.93
2022-11-03T23:54:27.333Z,6.18
2022-11-03T23:57:12.581Z,5.63
2022-11-03T23:59:39.239Z,4.43
